Tiempo atmosférico en la estación meteorológica de Alcuescar, Cáceres (460 m.)



Fecha
DESCASC
Temp. máxima en grados centígrados (hora)
DESCASC
Temp. mínima en grados centígrados (hora)
DESCASC
Temp. media en grados centígrados
DESCASC
Racha de viento máxima en m/sg (hora)
DESCASC
Velocidad máxima media en intervalos de 10 minutos(hora)
DESCASC
Precipitaciones diarias en mm
DESCASC
Precipitaciones de 00:00 a 06:00 en mm
DESCASC
Precipitaciones de 06:00 a 12:00 en mm
DESCASC
Precipitaciones de 12:00 a 18:00 en mm
DESCASC
Precipitaciones de 18:00 a 24:00 en mm
DESCASC
20-09-2020 26.1 (18:10) 16.3 (05:00) 21.2 8.61 (14:10) 5 (14:00) 0 0 0 0 0
19-09-2020 24.2 (16:40) 15.7 (07:40) 20 12.78 (01:30) 7.22 (03:10) 0 0 0 0 0
18-09-2020 21.8 (12:00) 15.2 (05:30) 18.5 12.78 (19:30) 8.33 (19:30) 14.6 4.4 0 4.8 5.4
17-09-2020 28.9 (17:40) 17.5 (00:00) 23.2 16.39 (20:10) 9.17 (20:10) 0 0 0 0 0
16-09-2020 31.8 (15:30) 15.8 (00:00) 23.8 8.61 (13:30) 5 (11:50) 0 0 0 0 0
15-09-2020 30.3 (14:30) 16 (00:00) 23.1 7.5 (16:40) 3.89 (16:10) 0 0 0 0 0
14-09-2020 33.9 (15:00) 19.9 (00:00) 26.9 10 (12:10) 5.56 (12:40) 0 0 0 0 0
13-09-2020 36.6 (16:40) 21.3 (00:00) 28.9 10.56 (11:40) 6.67 (11:40) 0 0 0 0 0
12-09-2020 36.5 (16:50) 20 (00:00) 28.3 7.5 (12:00) 5 (12:00) 0 0 0 0 0
11-09-2020 35.9 (16:00) 18.7 (00:00) 27.3 7.78 (12:50) 5 (12:00) 0 0 0 0 0
10-09-2020 34 (18:20) 17.8 (00:00) 25.9 8.61 (18:30) 3.61 (15:20) 0 0 0 0 0
09-09-2020 32.2 (15:40) 18.4 (00:00) 25.3 8.89 (09:50) 6.11 (10:00) 0 0 0 0 0
08-09-2020 31.9 (16:40) 18.7 (00:00) 25.3 10.28 (15:50) 6.67 (11:00) 0 0 0 0 0
07-09-2020 33.2 (16:00) 18.6 (07:30) 25.9 9.17 (17:50) 5.28 (17:50) 0 0 0 0 0
06-09-2020 36.8 (15:40) 19.8 (00:00) 28.3 7.78 (16:30) 5 (09:10) 0 0 0 0 0
05-09-2020 36.1 (17:00) 19.3 (00:00) 27.7 6.94 (11:50) 4.72 (11:40) 0 0 0 0 0
04-09-2020 36.2 (17:20) 18.8 (00:00) 27.5 8.06 (16:10) 4.72 (18:10) 0 0 0 0 0
03-09-2020 36.5 (16:40) 19.5 (00:00) 28 9.17 (11:40) 6.39 (11:50) 0 0 0 0 0
02-09-2020 34.2 (16:00) 13.4 (00:00) 23.8 7.78 (13:40) 4.72 (13:20) 0 0 0 0 0
01-09-2020 31.9 (13:50) 16.4 (00:00) 24.1 8.61 (17:40) 4.44 (14:30) 0 0 0 0 0
31-08-2020 31.5 (18:00) 13.6 (00:00) 22.6 9.17 (10:10) 6.11 (10:10) 0 0 0 0 0
30-08-2020 27.5 (14:00) 11.4 (00:00) 19.4 9.44 (10:40) 6.39 (10:40) 0 0 0 0 0
29-08-2020 25.8 (17:00) 12.3 (00:00) 19 11.94 (14:50) 7.22 (14:00) 0 0 0 0 0
28-08-2020 31.9 (16:50) 18 (00:00) 24.9 11.67 (15:20) 6.94 (12:40) 0 0 0 0 0
27-08-2020 37.7 (16:30) 20.5 (00:00) 29.1 9.17 (17:40) 5.83 (20:30) 0 0 0 0 0
26-08-2020 37.7 (17:50) 21 (00:00) 29.4 8.33 (15:50) 5 (16:00) 0 0 0 0 0
25-08-2020 37.9 (15:40) 21.1 (00:00) 29.5 6.67 (16:20) 3.89 (10:20) 0 0 0 0 0
24-08-2020 38.6 (17:30) 16.9 (00:00) 27.7 6.94 (13:00) 3.61 (13:10) 0 0 0 0 0
23-08-2020 35.6 (17:40) 13.9 (00:00) 24.7 7.5 (20:20) 4.44 (20:00) 0 0 0 0 0
22-08-2020 33.5 (17:30) 13.9 (00:00) 23.7 7.5 (15:50) 4.17 (15:50) 0 0 0 0 0

Gráficas

Temp. máximas Temp. mínimas Temp. medias Precipitaciones Rachas de viento máximas Velocidades máximas media en intervalos de 10 minutos

Datos horarios

Fecha y hora oficial Temperatura (ºC) Velocidad del viento (km/h) Dirección del viento Racha (km/h) Dirección de racha Precipitación (mm) Presión (hPa) Tendencia (hPa) Humedad (%)
2020-09-20 23:00:00 17.7 6 Noroeste 10 Noroeste 0 -- -- 72
2020-09-20 22:00:00 18.6 7 Noroeste 13 Oeste 0 -- -- 69
2020-09-20 21:00:00 20.2 8 Noroeste 19 Oeste 0 -- -- 62
2020-09-20 20:00:00 22.8 13 Oeste 25 Oeste 0 -- -- 53
2020-09-20 19:00:00 24.8 13 Noroeste 24 Oeste 0 -- -- 47
2020-09-20 18:00:00 25.9 14 Oeste 25 Oeste 0 -- -- 45
2020-09-20 17:00:00 24.9 9 Oeste 26 Oeste 0 -- -- 53
2020-09-20 16:00:00 23.3 15 Noroeste 30 Noroeste 0 -- -- 63
2020-09-20 15:00:00 24.4 18 Oeste 31 Oeste 0 -- -- 56
2020-09-20 14:00:00 24.5 18 Oeste 29 Oeste 0 -- -- 57
2020-09-20 13:00:00 21.6 16 Oeste 27 Sudoeste 0 -- -- 66
2020-09-20 12:00:00 19.9 10 Sudoeste 23 Sudoeste 0 -- -- 79
2020-09-20 11:00:00 17.8 9 Sudoeste 18 Sudoeste 0 -- -- 92
2020-09-20 10:00:00 16.8 9 Sudoeste 18 Sur 0 -- -- 95
2020-09-20 09:00:00 16.5 11 Sudoeste 18 Sur 0 -- -- 95
2020-09-20 08:00:00 16.4 11 Sudoeste 25 Sudoeste 0 -- -- 94
2020-09-20 07:00:00 16.4 10 Sudoeste 15 Sudoeste 0 -- -- 93
2020-09-20 06:00:00 16.4 9 Sudoeste 19 Sudoeste 0 -- -- 96
2020-09-20 05:00:00 16.3 11 Sudoeste 21 Sudoeste 0 -- -- 95
2020-09-20 04:00:00 16.6 11 Sudoeste 22 Sudoeste 0 -- -- 91
2020-09-20 03:00:00 16.5 11 Sudoeste 20 Sudoeste 0 -- -- 89
2020-09-20 02:00:00 17.3 11 Sudoeste 20 Oeste 0 -- -- 85
2020-09-20 01:00:00 18.2 12 Oeste 20 Oeste 0 -- -- 79
2020-09-20 00:00:00 18.8 9 Oeste 24 Sudoeste 0 -- -- 76
2020-09-19 23:00:00 19.3 11 Oeste 21 Oeste 0 -- -- 72
2020-09-19 22:00:00 20.2 11 Oeste 23 Oeste 0 -- -- 66
2020-09-19 21:00:00 19.8 3 Sur 19 Oeste 0 -- -- 67
2020-09-19 20:00:00 21.5 13 Sudoeste 23 Oeste 0 -- -- 59
2020-09-19 19:00:00 22.4 12 Sudoeste 34 Sudoeste 0 -- -- 56
2020-09-19 18:00:00 24.1 19 Sudoeste 30 Oeste 0 -- -- 52
2020-09-19 17:00:00 22.7 17 Sudoeste 32 Sudoeste 0 -- -- 54
2020-09-19 16:00:00 22.8 15 Sudoeste 41 Sudoeste 0 -- -- 53
2020-09-19 15:00:00 23 17 Sudoeste 36 Sudoeste 0 -- -- 54
2020-09-19 14:00:00 22 14 Oeste 31 Sudoeste 0 -- -- 60
2020-09-19 13:00:00 20.2 17 Sudoeste 34 Sudoeste 0 -- -- 69
2020-09-19 12:00:00 19.5 19 Sudoeste 30 Sudoeste 0 -- -- 74
2020-09-19 11:00:00 18.4 17 Sudoeste 27 Sudoeste 0 -- -- 82
2020-09-19 10:00:00 17.1 15 Sudoeste 28 Sudoeste 0 -- -- 90
2020-09-19 09:00:00 16 14 Sudoeste 29 Sudoeste 0 -- -- 95
2020-09-19 08:00:00 15.7 14 Sudoeste 29 Sudoeste 0 -- -- 96
2020-09-19 07:00:00 15.8 14 Sudoeste 37 Sudoeste 0 -- -- 95
2020-09-19 06:00:00 16 17 Sudoeste 34 Sudoeste 0 -- -- 94
2020-09-19 05:00:00 15.9 18 Sudoeste 38 Sudoeste 0 -- -- 95
2020-09-19 04:00:00 16.1 21 Sudoeste 42 Sur 0 -- -- 94
2020-09-19 03:00:00 16.1 23 Sur 38 Sur 0 -- -- 93
2020-09-19 02:00:00 16.1 23 Sur 46 Sur 0 -- -- 94
2020-09-19 01:00:00 16.2 22 Sur 37 Sur 0 -- -- 94
2020-09-19 00:00:00 16.3 22 Sur 40 Sur 0 -- -- 95
2020-09-18 23:00:00 16.2 22 Sur 40 Sur 0 -- -- 95
2020-09-18 22:00:00 16.2 28 Sur 44 Sur 2.8 -- -- 95
2020-09-18 21:00:00 16.8 24 Sur 44 Sur 0 -- -- 91
2020-09-18 20:00:00 16.7 13 Sur 46 Sur 2.4 -- -- 94
2020-09-18 19:00:00 18.4 18 Sudeste 39 Sur 0.2 -- -- 83
2020-09-18 18:00:00 19.5 19 Sudeste 35 Sudeste 0 -- -- 77
2020-09-18 17:00:00 20.1 18 Sudeste 35 Sudeste 0 -- -- 82
2020-09-18 16:00:00 19.6 22 Sudeste 35 Este 0.4 -- -- 84
2020-09-18 15:00:00 17.5 16 Sudeste 36 Sudeste 2 -- -- 93
2020-09-18 14:00:00 17.3 16 Sudeste 23 Sudeste 2.4 -- -- 92
2020-09-18 13:00:00 20.4 13 Sudeste 33 Este 0 -- -- 70
2020-09-18 12:00:00 21.8 18 Sudeste 32 Este 0 -- -- 67
2020-09-18 11:00:00 19.5 17 Sudeste 27 Sudeste 0 -- -- 83
2020-09-18 10:00:00 17.6 14 Sudeste 21 Sudeste 0 -- -- 95
2020-09-18 09:00:00 15.7 13 Sudeste 22 Sudeste 0 -- -- 99
2020-09-18 08:00:00 15.6 10 Sudeste 18 Sudeste 0 -- -- 98
2020-09-18 07:00:00 15.7 8 Sudeste 15 Sudeste 0 -- -- 98
2020-09-18 06:00:00 15.7 7 Sur 13 Sudeste 0 -- -- 97
2020-09-18 05:00:00 15.6 4 Sur 10 Sudeste 0 -- -- 95
2020-09-18 04:00:00 16.3 4 Este 12 Oeste 0.2 -- -- 96
2020-09-18 03:00:00 16.1 9 Sudoeste 18 Sur 1.8 -- -- 95
2020-09-18 02:00:00 16.9 5 Sur 19 Sudeste 2.4 -- -- 93
2020-09-18 01:00:00 17.4 3 Norte 10 Oeste 0 -- -- 92
2020-09-18 00:00:00 17.6 6 Noroeste 9 Noroeste 0 -- -- 86
2020-09-17 23:00:00 17.7 7 Noroeste 11 Oeste 0 -- -- 85
2020-09-17 22:00:00 18.4 5 Oeste 16 Sudoeste 0 -- -- 81
2020-09-17 21:00:00 19.2 11 Oeste 59 Sur 0 -- -- 74
2020-09-17 20:00:00 24.4 27 Sur 44 Sur 0 -- -- 44
2020-09-17 19:00:00 24.4 24 Sur 54 Sudeste 0 -- -- 51
2020-09-17 18:00:00 27.4 24 Sur 46 Sur 0 -- -- 35
2020-09-17 17:00:00 28.5 23 Sudeste 50 Sudeste 0 -- -- 34
2020-09-17 16:00:00 27.5 23 Sudeste 40 Sudeste 0 -- -- 37
2020-09-17 15:00:00 25.8 22 Sudeste 40 Sudeste 0 -- -- 47
2020-09-17 14:00:00 24.4 19 Sudeste 30 Sudeste 0 -- -- 57
2020-09-17 13:00:00 22.8 23 Sudeste 36 Sudeste 0 -- -- 63
2020-09-17 12:00:00 23.3 18 Sudeste 35 Sudeste 0 -- -- 55
2020-09-17 11:00:00 24 19 Sudeste 28 Sudeste 0 -- -- 50
2020-09-17 10:00:00 22.4 13 Sudeste 26 Sudeste 0 -- -- 65
2020-09-17 09:00:00 20.5 9 Sudeste 13 Sudeste 0 -- -- 69
2020-09-17 08:00:00 19 7 Sudeste 13 Sudeste 0 -- -- 72
2020-09-17 07:00:00 18.4 6 Sudeste 13 Sudeste 0 -- -- 74
2020-09-17 06:00:00 18.2 9 Sudeste 13 Sudeste 0 -- -- 74
2020-09-17 05:00:00 19.1 8 Sudeste 13 Sudeste 0 -- -- 69
2020-09-17 04:00:00 19.7 10 Sudeste 21 Sudeste 0 -- -- 63
2020-09-17 03:00:00 21.4 5 Sudeste 9 Sudoeste 0 -- -- 55
2020-09-17 02:00:00 22.2 6 Sudoeste 16 Sur 0 -- -- 52
2020-09-17 01:00:00 22.5 9 Sudoeste 17 Sudoeste 0 -- -- 50
2020-09-17 00:00:00 22.3 7 Sudoeste 15 Sudoeste 0 -- -- 50
2020-09-16 23:00:00 22.8 5 Sudoeste 18 Sur 0 -- -- 45
2020-09-16 22:00:00 24.7 10 Sur 23 Sur 0 -- -- 38
2020-09-16 21:00:00 25.5 10 Sur 18 Sur 0 -- -- 36
2020-09-16 20:00:00 26.4 8 Sudeste 15 Este 0 -- -- 35
2020-09-16 19:00:00 27.2 7 Sudeste 15 Sudeste 0 -- -- 32
2020-09-16 18:00:00 28.7 9 Este 17 Sudeste 0 -- -- 30
2020-09-16 17:00:00 29.7 12 Este 22 Sudeste 0 -- -- 28
2020-09-16 16:00:00 30.8 12 Sudeste 22 Sudeste 0 -- -- 26
2020-09-16 15:00:00 31.3 9 Sudeste 23 Sudeste 0 -- -- 26
2020-09-16 14:00:00 30 11 Sudeste 31 Sudeste 0 -- -- 28
2020-09-16 13:00:00 29.1 15 Sudeste 25 Sudeste 0 -- -- 28
2020-09-16 12:00:00 26.9 18 Sudeste 26 Sudeste 0 -- -- 33
2020-09-16 11:00:00 24 15 Sudeste 21 Sudeste 0 -- -- 40
2020-09-16 10:00:00 21.9 5 Sudeste 8 Sudeste 0 -- -- 50
2020-09-16 09:00:00 17.6 6 Oeste 7 Oeste 0 -- -- 74
2020-09-16 08:00:00 15.8 4 Oeste 7 Oeste 0 -- -- 78
2020-09-16 07:00:00 15.8 6 Oeste 6 Oeste 0 -- -- 72
2020-09-16 06:00:00 16.5 5 Oeste 7 Oeste 0 -- -- 67
2020-09-16 05:00:00 16.4 5 Noroeste 8 Oeste 0 -- -- 60
2020-09-16 04:00:00 17.4 5 Oeste 15 Oeste 0 -- -- 56
2020-09-16 03:00:00 18.5 10 Oeste 24 Oeste 0 -- -- 48
2020-09-16 02:00:00 20.9 4 Oeste 5 Sudoeste 0 -- -- 42
2020-09-16 01:00:00 21.7 3 Noroeste 4 Noroeste 0 -- -- 43
2020-09-16 00:00:00 21.6 0 Calma 4 Oeste 0 -- -- 43
2020-09-15 23:00:00 21.9 3 Oeste 9 Oeste 0 -- -- 44
2020-09-15 22:00:00 23.1 3 Noroeste 8 Noroeste 0 -- -- 40
2020-09-15 21:00:00 24.5 5 Noroeste 12 Oeste 0 -- -- 36
2020-09-15 20:00:00 27.5 9 Oeste 15 Sudoeste 0 -- -- 28
2020-09-15 19:00:00 29.3 9 Oeste 18 Oeste 0 -- -- 25
2020-09-15 18:00:00 29.7 8 Oeste 20 Sudoeste 0 -- -- 23
2020-09-15 17:00:00 29.9 11 Sudoeste 27 Sur 0 -- -- 23
2020-09-15 16:00:00 29.2 13 Sudoeste 23 Sur 0 -- -- 26
2020-09-15 15:00:00 29.5 12 Sur 23 Sudeste 0 -- -- 27
2020-09-15 14:00:00 29.1 10 Sudeste 21 Sudeste 0 -- -- 32
2020-09-15 13:00:00 27.6 12 Sur 27 Sudeste 0 -- -- 38
2020-09-15 12:00:00 26.1 9 Sudeste 21 Sudeste 0 -- -- 42
2020-09-15 11:00:00 23.8 12 Este 22 Este 0 -- -- 49
2020-09-15 10:00:00 21.1 2 Sur 10 Sudoeste 0 -- -- 61
2020-09-15 09:00:00 17.4 6 Sudoeste 10 Sudoeste 0 -- -- 81
2020-09-15 08:00:00 16.6 2 Este 3 Sudeste 0 -- -- 79
2020-09-15 07:00:00 16.2 0 Calma 4 Oeste 0 -- -- 78
2020-09-15 06:00:00 16.8 2 Norte 6 Sudoeste 0 -- -- 73
2020-09-15 05:00:00 17.5 0 Calma 9 Sudoeste 0 -- -- 68
2020-09-15 04:00:00 18.2 2 Oeste 12 Sudoeste 0 -- -- 62
2020-09-15 03:00:00 19.4 8 Sudoeste 12 Sudoeste 0 -- -- 55
2020-09-15 02:00:00 20.7 8 Sudoeste 10 Sudoeste 0 -- -- 49
2020-09-15 01:00:00 21.5 6 Oeste 14 Sudoeste 0 -- -- 48
2020-09-15 00:00:00 23 9 Sudoeste 14 Sudoeste 0 -- -- 48
2020-09-14 23:00:00 24.4 9 Sudoeste 15 Sudoeste 0 -- -- 42
2020-09-14 22:00:00 25.9 6 Sudoeste 19 Sudoeste 0 -- -- 36
2020-09-14 21:00:00 26.5 7 Oeste 21 Oeste 0 -- -- 36
2020-09-14 20:00:00 28.4 12 Oeste 29 Sudoeste 0 -- -- 36
2020-09-14 19:00:00 30 18 Oeste 29 Sudoeste 0 -- -- 31
2020-09-14 18:00:00 31.2 15 Sudoeste 27 Sudoeste 0 -- -- 28
2020-09-14 17:00:00 32 12 Oeste 34 Sudoeste 0 -- -- 26
2020-09-14 16:00:00 33.3 10 Sur 30 Sudoeste 0 -- -- 22
2020-09-14 15:00:00 33.9 16 Sudeste 32 Sudeste 0 -- -- 22
2020-09-14 14:00:00 32.3 18 Sur 33 Sudeste 0 -- -- 25
2020-09-14 13:00:00 31.3 17 Sudeste 36 Sudeste 0 -- -- 25
2020-09-14 12:00:00 29.2 14 Sudeste 25 Sudeste 0 -- -- 31
2020-09-14 11:00:00 26.1 5 Este 10 Nordeste 0 -- -- 44
2020-09-14 10:00:00 22.3 3 Oeste 5 Oeste 0 -- -- 66
2020-09-14 09:00:00 20.5 3 Nordeste 7 Nordeste 0 -- -- 74
2020-09-14 08:00:00 20 5 Nordeste 7 Nordeste 0 -- -- 76
2020-09-14 07:00:00 20.1 4 Oeste 6 Nordeste 0 -- -- 74
2020-09-14 06:00:00 20.4 3 Norte 8 Oeste 0 -- -- 72
2020-09-14 05:00:00 20.7 4 Noroeste 13 Sudoeste 0 -- -- 70
2020-09-14 04:00:00 21.2 3 Sudoeste 11 Sudoeste 0 -- -- 67
2020-09-14 03:00:00 21.9 5 Oeste 22 Sudoeste 0 -- -- 62
2020-09-14 02:00:00 22.7 9 Oeste 20 Oeste 0 -- -- 57
2020-09-14 01:00:00 23.7 9 Oeste 20 Oeste 0 -- -- 53
2020-09-14 00:00:00 24.9 12 Oeste 21 Sudoeste 0 -- -- 49
2020-09-13 23:00:00 26.3 5 Sudoeste 23 Sudeste 0 -- -- 33
2020-09-13 22:00:00 29.1 15 Sur 27 Sur 0 -- -- 16
2020-09-13 21:00:00 29.4 13 Sur 26 Sur 0 -- -- 16
2020-09-13 20:00:00 32.8 16 Sur 25 Sur 0 -- -- 14
2020-09-13 19:00:00 33.6 14 Este 31 Sudeste 0 -- -- 14
2020-09-13 18:00:00 36 17 Sudeste 33 Sudeste 0 -- -- 12
2020-09-13 17:00:00 36.1 15 Este 33 Este 0 -- -- 13
2020-09-13 16:00:00 34.8 18 Este 33 Este 0 -- -- 14
2020-09-13 15:00:00 34.4 18 Sudeste 32 Sudeste 0 -- -- 15
2020-09-13 14:00:00 31.4 18 Sudeste 31 Sudeste 0 -- -- 19
2020-09-13 13:00:00 31.4 19 Sudeste 37 Este 0 -- -- 19
2020-09-13 12:00:00 30 22 Sudeste 38 Este 0 -- -- 20
2020-09-13 11:00:00 28.3 18 Sudeste 30 Este 0 -- -- 23
2020-09-13 10:00:00 24.4 14 Sudeste 20 Sudeste 0 -- -- 29
2020-09-13 09:00:00 23.7 13 Sudeste 19 Sudeste 0 -- -- 29
2020-09-13 08:00:00 22.2 9 Sudeste 12 Sudeste 0 -- -- 30
2020-09-13 07:00:00 21.3 8 Sudeste 18 Este 0 -- -- 32
2020-09-13 06:00:00 22.4 10 Sudeste 21 Este 0 -- -- 29
2020-09-13 05:00:00 23.3 14 Sudeste 20 Sudeste 0 -- -- 28
2020-09-13 04:00:00 23.9 12 Sudeste 17 Sudeste 0 -- -- 27
2020-09-13 03:00:00 25.9 9 Sur 19 Sudeste 0 -- -- 22
2020-09-13 02:00:00 25.1 6 Sudeste 15 Sudeste 0 -- -- 25
2020-09-13 01:00:00 26.1 11 Sudeste 18 Sudeste 0 -- -- 23
2020-09-13 00:00:00 26.7 3 Nordeste 9 Norte 0 -- -- 21
2020-09-12 23:00:00 26.2 7 Noroeste 11 Norte 0 -- -- 22
2020-09-12 22:00:00 29 5 Este 11 Este 0 -- -- 18
2020-09-12 21:00:00 29.7 7 Este 12 Este 0 -- -- 17
2020-09-12 20:00:00 31.9 7 Este 16 Este 0 -- -- 15
2020-09-12 19:00:00 33.5 8 Este 23 Este 0 -- -- 14
2020-09-12 18:00:00 34.5 9 Este 26 Sudeste 0 -- -- 14
2020-09-12 17:00:00 35.7 10 Sudeste 24 Sudeste 0 -- -- 13
2020-09-12 16:00:00 35.6 15 Sudeste 24 Sudeste 0 -- -- 13
2020-09-12 15:00:00 35.6 8 Sudeste 25 Sudeste 0 -- -- 13
2020-09-12 14:00:00 34 10 Este 23 Sudeste 0 -- -- 15
2020-09-12 13:00:00 32.9 12 Sudeste 25 Sudeste 0 -- -- 16
2020-09-12 12:00:00 30.2 18 Sudeste 27 Este 0 -- -- 19
2020-09-12 11:00:00 27.8 18 Sudeste 26 Sudeste 0 -- -- 21
2020-09-12 10:00:00 25.6 11 Sudeste 18 Sudeste 0 -- -- 25
2020-09-12 09:00:00 21.2 12 Sudeste 21 Sudeste 0 -- -- 30
2020-09-12 08:00:00 20.4 14 Sudeste 23 Sudeste 0 -- -- 30
2020-09-12 07:00:00 20.3 15 Sudeste 23 Sudeste 0 -- -- 30
2020-09-12 06:00:00 20.9 16 Sudeste 22 Sudeste 0 -- -- 28
2020-09-12 05:00:00 20.9 12 Sudeste 16 Sudeste 0 -- -- 28
2020-09-12 04:00:00 22.6 6 Sudoeste 8 Sudoeste 0 -- -- 25
2020-09-12 03:00:00 23.6 4 Sudeste 9 Sudeste 0 -- -- 22
2020-09-12 02:00:00 23.5 8 Sudeste 13 Sudeste 0 -- -- 22
2020-09-12 01:00:00 24.7 4 Norte 6 Sudoeste 0 -- -- 20
2020-09-12 00:00:00 23.9 6 Sudoeste 15 Oeste 0 -- -- 21
2020-09-11 23:00:00 27.6 0 Calma -- -- 0 -- -- 16
2020-09-11 22:00:00 27.6 2 Sudeste 4 Este 0 -- -- 16
2020-09-11 21:00:00 29.3 2 Nordeste 6 Noroeste 0 -- -- 14
2020-09-11 20:00:00 32.1 5 Norte 19 Norte 0 -- -- 12
2020-09-11 19:00:00 34.4 6 Sur 18 Sudoeste 0 -- -- 10
2020-09-11 18:00:00 33.1 8 Sudoeste 18 Sudoeste 0 -- -- 11
2020-09-11 17:00:00 34.6 9 Sudoeste 21 Sudoeste 0 -- -- 10
2020-09-11 16:00:00 35.9 10 Sudeste 18 Sudeste 0 -- -- 10
2020-09-11 15:00:00 34.1 4 Oeste 22 Sudeste 0 -- -- 11
2020-09-11 14:00:00 33.9 9 Sudeste 24 Sudeste 0 -- -- 13
2020-09-11 13:00:00 33.3 17 Sudeste 28 Este 0 -- -- 13
2020-09-11 12:00:00 30.6 18 Sudeste 27 Sudeste 0 -- -- 16
2020-09-11 11:00:00 27.7 12 Sudeste 19 Sudeste 0 -- -- 20
2020-09-11 10:00:00 24.7 12 Sudeste 17 Sudeste 0 -- -- 23
2020-09-11 09:00:00 22.1 7 Sudeste 12 Sudeste 0 -- -- 29
2020-09-11 08:00:00 19.6 0 Calma 6 Oeste 0 -- -- 40
2020-09-11 07:00:00 19.3 5 Oeste 6 Oeste 0 -- -- 39
2020-09-11 06:00:00 19.8 5 Oeste 7 Oeste 0 -- -- 36
2020-09-11 05:00:00 20.3 4 Noroeste 7 Noroeste 0 -- -- 33
2020-09-11 04:00:00 20.3 4 Oeste 9 Oeste 0 -- -- 29
2020-09-11 03:00:00 18.8 8 Oeste 19 Noroeste 0 -- -- 29
2020-09-11 02:00:00 25.1 4 Noroeste 5 Noroeste 0 -- -- 19
2020-09-11 01:00:00 25.8 0 Calma 3 Sur 0 -- -- 18
2020-09-11 00:00:00 25.4 2 Sudeste 7 Sur 0 -- -- 19
2020-09-10 23:00:00 25.5 7 Sudoeste 10 Sudoeste 0 -- -- 17
2020-09-10 22:00:00 25.7 0 Calma 8 Norte 0 -- -- 17
2020-09-10 21:00:00 27.7 7 Norte 12 Norte 0 -- -- 15
2020-09-10 20:00:00 30.6 7 Norte 21 Noroeste 0 -- -- 12
2020-09-10 19:00:00 32.3 10 Noroeste 31 Noroeste 0 -- -- 11
2020-09-10 18:00:00 33.4 12 Noroeste 26 Noroeste 0 -- -- 10
2020-09-10 17:00:00 33.5 12 Oeste 28 Noroeste 0 -- -- 11
2020-09-10 16:00:00 32.9 8 Oeste 25 Oeste 0 -- -- 11
2020-09-10 15:00:00 33.6 8 Sudoeste 23 Oeste 0 -- -- 10
2020-09-10 14:00:00 32.8 8 Oeste 17 Nordeste 0 -- -- 11
2020-09-10 13:00:00 31.6 6 Noroeste 16 Este 0 -- -- 13
2020-09-10 12:00:00 30.1 3 Norte 9 Sudoeste 0 -- -- 15
2020-09-10 11:00:00 26.7 5 Oeste 9 Oeste 0 -- -- 19
2020-09-10 10:00:00 23.1 4 Oeste 8 Oeste 0 -- -- 26
2020-09-10 09:00:00 19.2 4 Oeste 10 Oeste 0 -- -- 30
2020-09-10 08:00:00 18.7 6 Norte 8 Norte 0 -- -- 31
2020-09-10 07:00:00 19.6 5 Oeste 6 Noroeste 0 -- -- 26
2020-09-10 06:00:00 19.7 3 Noroeste 6 Oeste 0 -- -- 26
2020-09-10 05:00:00 19.3 4 Noroeste 9 Noroeste 0 -- -- 27
2020-09-10 04:00:00 19.1 8 Noroeste 19 Noroeste 0 -- -- 28
2020-09-10 03:00:00 22.1 7 Norte 9 Norte 0 -- -- 23
2020-09-10 02:00:00 22.4 3 Noroeste 9 Norte 0 -- -- 22
2020-09-10 01:00:00 23.3 4 Norte 7 Sudoeste 0 -- -- 20
2020-09-10 00:00:00 23.8 4 Oeste 7 Sudoeste 0 -- -- 19
2020-09-09 23:00:00 23.7 5 Oeste 5 Oeste 0 -- -- 19
2020-09-09 22:00:00 24.6 5 Noroeste 8 Norte 0 -- -- 19
2020-09-09 21:00:00 26.3 6 Noroeste 12 Norte 0 -- -- 17
2020-09-09 20:00:00 29.5 7 Norte 19 Nordeste 0 -- -- 14
2020-09-09 19:00:00 31.3 6 Norte 18 Noroeste 0 -- -- 13
2020-09-09 18:00:00 31.8 7 Noroeste 23 Norte 0 -- -- 14
2020-09-09 17:00:00 31.9 8 Oeste 28 Noroeste 0 -- -- 16
2020-09-09 16:00:00 32.1 10 Sudeste 22 Este 0 -- -- 19
2020-09-09 15:00:00 31.6 8 Sudeste 23 Sudeste 0 -- -- 21
2020-09-09 14:00:00 30.4 12 Sudeste 24 Sudeste 0 -- -- 25
2020-09-09 13:00:00 28.8 16 Sudeste 32 Sudeste 0 -- -- 29
2020-09-09 12:00:00 26.5 17 Sudeste 29 Sudeste 0 -- -- 33
2020-09-09 11:00:00 24.6 18 Sudeste 30 Este 0 -- -- 33
2020-09-09 10:00:00 22.5 22 Sudeste 32 Este 0 -- -- 34
2020-09-09 09:00:00 19.9 17 Sudeste 25 Sudeste 0 -- -- 38
2020-09-09 08:00:00 18.4 17 Sudeste 26 Sudeste 0 -- -- 39
2020-09-09 07:00:00 19 18 Sudeste 27 Sudeste 0 -- -- 36
2020-09-09 06:00:00 19.4 16 Sudeste 21 Sudeste 0 -- -- 34
2020-09-09 05:00:00 19.6 14 Sudeste 17 Sudeste 0 -- -- 33
2020-09-09 04:00:00 20.4 12 Sudeste 21 Sudeste 0 -- -- 30
2020-09-09 03:00:00 22.7 13 Sudeste 31 Este 0 -- -- 26
2020-09-09 02:00:00 23 14 Este 31 Este 0 -- -- 25
2020-09-09 01:00:00 21 8 Este 16 Nordeste 0 -- -- 29
2020-09-09 00:00:00 21.4 7 Nordeste 19 Nordeste 0 -- -- 30
2020-09-08 23:00:00 22.8 14 Nordeste 22 Nordeste 0 -- -- 28
2020-09-08 22:00:00 24 12 Nordeste 18 Nordeste 0 -- -- 23
2020-09-08 21:00:00 25 8 Este 14 Sudeste 0 -- -- 20
2020-09-08 20:00:00 28.7 10 Sudeste 27 Sudeste 0 -- -- 16
2020-09-08 19:00:00 30.2 11 Este 25 Este 0 -- -- 15
2020-09-08 18:00:00 30.8 14 Este 28 Sudeste 0 -- -- 15
2020-09-08 17:00:00 31 13 Este 35 Sudeste 0 -- -- 15
2020-09-08 16:00:00 30.9 18 Sudeste 37 Este 0 -- -- 16
2020-09-08 15:00:00 30.8 15 Sudeste 33 Sudeste 0 -- -- 16
2020-09-08 14:00:00 29.7 18 Sudeste 36 Sudeste 0 -- -- 17
2020-09-08 13:00:00 28.9 21 Sudeste 36 Sudeste 0 -- -- 20
2020-09-08 12:00:00 26.5 21 Sudeste 33 Sudeste 0 -- -- 28
2020-09-08 11:00:00 24.7 24 Sudeste 33 Sudeste 0 -- -- 32
2020-09-08 10:00:00 23.1 9 Nordeste 15 Nordeste 0 -- -- 30
2020-09-08 09:00:00 19.3 5 Norte 21 Este 0 -- -- 36
2020-09-08 08:00:00 19.9 17 Este 26 Este 0 -- -- 41
2020-09-08 07:00:00 18.9 11 Sudeste 19 Sudeste 0 -- -- 33
2020-09-08 06:00:00 20.8 9 Sudeste 28 Este 0 -- -- 19
2020-09-08 05:00:00 21.7 10 Este 23 Este 0 -- -- 17
2020-09-08 04:00:00 21 9 Sudeste 18 Sudeste 0 -- -- 17
2020-09-08 03:00:00 21.8 12 Sudeste 23 Este 0 -- -- 16
2020-09-08 02:00:00 22.1 15 Sudeste 30 Este 0 -- -- 16
2020-09-08 01:00:00 24.6 20 Este 31 Sudeste 0 -- -- 13
2020-09-08 00:00:00 23 8 Sudeste 19 Nordeste 0 -- -- 24
2020-09-07 23:00:00 24.5 13 Norte 18 Norte 0 -- -- 23
2020-09-07 22:00:00 25.3 9 Norte 13 Norte 0 -- -- 22
2020-09-07 21:00:00 27.2 6 Norte 23 Norte 0 -- -- 20
2020-09-07 20:00:00 30 13 Norte 24 Norte 0 -- -- 16
2020-09-07 19:00:00 31.4 14 Norte 30 Noroeste 0 -- -- 13
2020-09-07 18:00:00 32 18 Norte 33 Norte 0 -- -- 13
2020-09-07 17:00:00 32.9 16 Norte 31 Norte 0 -- -- 14
2020-09-07 16:00:00 33.2 13 Norte 29 Norte 0 -- -- 15
2020-09-07 15:00:00 32.7 12 Norte 27 Noroeste 0 -- -- 16
2020-09-07 14:00:00 32.3 12 Norte 23 Noroeste 0 -- -- 18
2020-09-07 13:00:00 31.1 10 Norte 18 Norte 0 -- -- 20
2020-09-07 12:00:00 28.7 12 Norte 21 Norte 0 -- -- 23
2020-09-07 11:00:00 26 12 Norte 19 Norte 0 -- -- 28
2020-09-07 10:00:00 23.3 13 Noroeste 19 Norte 0 -- -- 34
2020-09-07 09:00:00 20 8 Oeste 13 Noroeste 0 -- -- 40
2020-09-07 08:00:00 18.7 6 Noroeste 12 Norte 0 -- -- 42
2020-09-07 07:00:00 19.4 7 Oeste 10 Oeste 0 -- -- 39
2020-09-07 06:00:00 20.3 6 Oeste 8 Oeste 0 -- -- 36
2020-09-07 05:00:00 20.8 6 Noroeste 14 Oeste 0 -- -- 34
2020-09-07 04:00:00 22.1 8 Noroeste 13 Oeste 0 -- -- 30
2020-09-07 03:00:00 22.9 7 Noroeste 10 Noroeste 0 -- -- 29
2020-09-07 02:00:00 24.6 8 Norte 11 Noroeste 0 -- -- 26
2020-09-07 01:00:00 24.8 8 Norte 9 Norte 0 -- -- 24
2020-09-07 00:00:00 26.4 4 Sudoeste 7 Sudoeste 0 -- -- 22
2020-09-06 23:00:00 26.6 5 Oeste 11 Noroeste 0 -- -- 20
2020-09-06 22:00:00 28 4 Noroeste 7 Noroeste 0 -- -- 18
2020-09-06 21:00:00 30.3 5 Noroeste 12 Noroeste 0 -- -- 14
2020-09-06 20:00:00 33.7 7 Noroeste 18 Noroeste 0 -- -- 11
2020-09-06 19:00:00 35 8 Noroeste 23 Noroeste 0 -- -- 10
2020-09-06 18:00:00 35.8 10 Noroeste 23 Oeste 0 -- -- 9
2020-09-06 17:00:00 36.1 9 Oeste 28 Oeste 0 -- -- 10
2020-09-06 16:00:00 35.6 8 Noroeste 17 Noroeste 0 -- -- 10
2020-09-06 15:00:00 35.1 6 Sur 17 Sudoeste 0 -- -- 13
2020-09-06 14:00:00 34 6 Sur 17 Este 0 -- -- 15
2020-09-06 13:00:00 32.6 7 Sudeste 17 Sudeste 0 -- -- 16
2020-09-06 12:00:00 30.3 7 Este 16 Este 0 -- -- 20
2020-09-06 11:00:00 28.2 9 Sudeste 21 Sudeste 0 -- -- 23
2020-09-06 10:00:00 25.1 14 Sudeste 26 Sudeste 0 -- -- 26
2020-09-06 09:00:00 22.1 16 Sudeste 21 Sudeste 0 -- -- 31
2020-09-06 08:00:00 19.9 11 Sudeste 14 Sudeste 0 -- -- 34
2020-09-06 07:00:00 22.7 3 Este 13 Norte 0 -- -- 27
2020-09-06 06:00:00 22.1 3 Sudeste 6 Este 0 -- -- 28
2020-09-06 05:00:00 21.9 6 Este 17 Este 0 -- -- 29
2020-09-06 04:00:00 23 8 Sudeste 19 Sudeste 0 -- -- 25
2020-09-06 03:00:00 24.2 5 Oeste 8 Noroeste 0 -- -- 22
2020-09-06 02:00:00 25.8 3 Oeste 6 Noroeste 0 -- -- 19
2020-09-06 01:00:00 25.9 6 Noroeste 7 Noroeste 0 -- -- 18
2020-09-06 00:00:00 27 3 Oeste 8 Noroeste 0 -- -- 18
2020-09-05 23:00:00 27.4 5 Oeste 13 Sudoeste 0 -- -- 17
2020-09-05 22:00:00 28.1 8 Sudoeste 13 Oeste 0 -- -- 17
2020-09-05 21:00:00 30.2 5 Oeste 12 Noroeste 0 -- -- 17
2020-09-05 20:00:00 33.6 7 Noroeste 18 Oeste 0 -- -- 13
2020-09-05 19:00:00 35.3 7 Sudoeste 18 Sudoeste 0 -- -- 11
2020-09-05 18:00:00 35.4 8 Oeste 22 Oeste 0 -- -- 12
2020-09-05 17:00:00 36.1 6 Sur 19 Oeste 0 -- -- 12
2020-09-05 16:00:00 35 5 Noroeste 23 Este 0 -- -- 12
2020-09-05 15:00:00 35.4 11 Sur 23 Sudeste 0 -- -- 12
2020-09-05 14:00:00 34.7 9 Sudeste 21 Sur 0 -- -- 13
2020-09-05 13:00:00 32.3 12 Sur 23 Sudeste 0 -- -- 16
2020-09-05 12:00:00 30.1 14 Sudeste 25 Este 0 -- -- 20
2020-09-05 11:00:00 27.8 13 Sudeste 21 Sudeste 0 -- -- 24
2020-09-05 10:00:00 24.2 12 Sudeste 21 Sudeste 0 -- -- 29
2020-09-05 09:00:00 20.7 11 Sudeste 21 Sudeste 0 -- -- 34
2020-09-05 08:00:00 19.6 17 Sudeste 22 Sudeste 0 -- -- 34
2020-09-05 07:00:00 21.3 14 Sudeste 18 Sudeste 0 -- -- 30
2020-09-05 06:00:00 21.4 7 Sudeste 12 Sudeste 0 -- -- 30
2020-09-05 05:00:00 22 8 Sudeste 10 Sudeste 0 -- -- 29
2020-09-05 04:00:00 24 5 Sudoeste 14 Sudeste 0 -- -- 25
2020-09-05 03:00:00 23 12 Sudeste 19 Sudeste 0 -- -- 28
2020-09-05 02:00:00 23.9 3 Oeste 9 Norte 0 -- -- 25
2020-09-05 01:00:00 24.1 2 Noroeste 8 Noroeste 0 -- -- 24
2020-09-05 00:00:00 25.8 6 Noroeste 8 Noroeste 0 -- -- 21
2020-09-04 23:00:00 26.8 3 Norte -- -- 0 -- -- 20
2020-09-04 22:00:00 27.7 6 Sudeste 6 Sudeste 0 -- -- 18
2020-09-04 21:00:00 29.9 4 Sudeste 10 Sur 0 -- -- 16
2020-09-04 20:00:00 33.3 8 Sudeste 22 Sudeste 0 -- -- 13
2020-09-04 19:00:00 34.7 14 Sudeste 29 Sudeste 0 -- -- 11
2020-09-04 18:00:00 35.9 15 Sudeste 28 Este 0 -- -- 11
2020-09-04 17:00:00 35.5 13 Sudeste 29 Sudeste 0 -- -- 15
2020-09-04 16:00:00 35.4 11 Sudeste 26 Este 0 -- -- 15
2020-09-04 15:00:00 34.9 12 Este 26 Este 0 -- -- 16
2020-09-04 14:00:00 32.7 4 Nordeste 18 Norte 0 -- -- 19
2020-09-04 13:00:00 31.1 6 Nordeste 13 Sudeste 0 -- -- 21
2020-09-04 12:00:00 30.6 4 Sudeste 16 Sudeste 0 -- -- 23
2020-09-04 11:00:00 28.8 10 Sudeste 19 Sudeste 0 -- -- 25
2020-09-04 10:00:00 25.4 12 Sudeste 19 Sudeste 0 -- -- 29
2020-09-04 09:00:00 21.4 11 Sudeste 16 Sudeste 0 -- -- 36
2020-09-04 08:00:00 18.9 10 Sudeste 19 Sudeste 0 -- -- 39
2020-09-04 07:00:00 19.1 8 Sudeste 17 Sudeste 0 -- -- 38
2020-09-04 06:00:00 20.6 14 Sudeste 21 Sudeste 0 -- -- 36
2020-09-04 05:00:00 21.5 6 Sudeste 17 Sur 0 -- -- 34
2020-09-04 04:00:00 22.4 4 Sur 14 Sudoeste 0 -- -- 33
2020-09-04 03:00:00 23.5 4 Sur 20 Sur 0 -- -- 27
2020-09-04 02:00:00 23.6 10 Sudeste 15 Sudeste 0 -- -- 25
2020-09-04 01:00:00 24.9 4 Nordeste 14 Sur 0 -- -- 19
2020-09-04 00:00:00 26.9 3 Nordeste 5 Nordeste 0 -- -- 16
2020-09-03 23:00:00 27 4 Este 6 Sudeste 0 -- -- 16
2020-09-03 22:00:00 27.2 -- -- -- -- 0 -- -- 17
2020-09-03 21:00:00 28.8 5 Sudeste 17 Sudeste 0 -- -- 16
2020-09-03 20:00:00 32.5 12 Sudeste 19 Sudeste 0 -- -- 12
2020-09-03 19:00:00 34.5 11 Sudeste 21 Sudeste 0 -- -- 10
2020-09-03 18:00:00 35.2 14 Sudeste 22 Sudeste 0 -- -- 9
2020-09-03 17:00:00 34.9 8 Este 23 Sudeste 0 -- -- 9
2020-09-03 16:00:00 35.3 11 Sudeste 25 Sudeste 0 -- -- 9
2020-09-03 15:00:00 35.1 13 Sudeste 27 Sudeste 0 -- -- 12
2020-09-03 14:00:00 33.3 15 Sudeste 27 Sudeste 0 -- -- 13
2020-09-03 13:00:00 30.8 17 Sudeste 30 Sudeste 0 -- -- 16
2020-09-03 12:00:00 28.8 19 Sudeste 33 Sudeste 0 -- -- 19
2020-09-03 11:00:00 26.7 17 Sudeste 28 Sudeste 0 -- -- 20
2020-09-03 10:00:00 24.9 15 Sudeste 25 Sudeste 0 -- -- 21
2020-09-03 09:00:00 21.8 13 Sudeste 18 Sudeste 0 -- -- 24
2020-09-03 08:00:00 19.7 8 Sudeste 10 Sudeste 0 -- -- 26
2020-09-03 07:00:00 20.7 2 Este 10 Este 0 -- -- 24
2020-09-03 06:00:00 20.1 7 Sudeste 11 Sudeste 0 -- -- 24
2020-09-03 05:00:00 21.3 9 Este 15 Sudeste 0 -- -- 23
2020-09-03 04:00:00 20.6 8 Sudeste 21 Sudeste 0 -- -- 23
2020-09-03 03:00:00 22.1 4 Sur 6 Oeste 0 -- -- 18
2020-09-03 02:00:00 21.5 4 Oeste 11 Norte 0 -- -- 19
2020-09-03 01:00:00 23.2 8 Norte 10 Norte 0 -- -- 16
2020-09-03 00:00:00 24.9 8 Norte 10 Norte 0 -- -- 14
2020-09-02 23:00:00 25.2 3 Noroeste 9 Nordeste 0 -- -- 15
2020-09-02 22:00:00 25.3 5 Nordeste 10 Este 0 -- -- 14
2020-09-02 21:00:00 27.8 8 Sur 11 Sur 0 -- -- 12
2020-09-02 20:00:00 31.2 4 Nordeste 17 Sudoeste 0 -- -- 9
2020-09-02 19:00:00 32.8 8 Sudoeste 21 Sur 0 -- -- 8
2020-09-02 18:00:00 33.8 9 Sudeste 19 Sudeste 0 -- -- 8
2020-09-02 17:00:00 32.9 10 Sudoeste 24 Sudeste 0 -- -- 8
2020-09-02 16:00:00 34.2 7 Sur 22 Sudeste 0 -- -- 8
2020-09-02 15:00:00 33.4 13 Sudeste 25 Sur 0 -- -- 9
2020-09-02 14:00:00 31.5 13 Sudeste 28 Sudeste 0 -- -- 14
2020-09-02 13:00:00 30.2 15 Sudeste 24 Sudeste 0 -- -- 18
2020-09-02 12:00:00 28 15 Sudeste 26 Sudeste 0 -- -- 23
2020-09-02 11:00:00 25 4 Sudeste 9 Sudeste 0 -- -- 26
2020-09-02 10:00:00 20.4 2 Noroeste 6 Oeste 0 -- -- 44
2020-09-02 09:00:00 16.2 6 Oeste 9 Noroeste 0 -- -- 64
2020-09-02 08:00:00 13.9 4 Oeste 11 Norte 0 -- -- 72
2020-09-02 07:00:00 13.4 7 Noroeste 8 Noroeste 0 -- -- 73
2020-09-02 06:00:00 15.6 4 Noroeste 6 Oeste 0 -- -- 61
2020-09-02 05:00:00 15.6 4 Noroeste 6 Noroeste 0 -- -- 62
2020-09-02 04:00:00 16 6 Noroeste 9 Noroeste 0 -- -- 59
2020-09-02 03:00:00 16.5 8 Noroeste 9 Noroeste 0 -- -- 54
2020-09-02 02:00:00 18.1 8 Noroeste 14 Noroeste 0 -- -- 48
2020-09-02 01:00:00 20.1 9 Noroeste 16 Noroeste 0 -- -- 41
2020-09-02 00:00:00 20.6 7 Noroeste 17 Oeste 0 -- -- 34
2020-09-01 23:00:00 22.5 9 Oeste 17 Oeste 0 -- -- 19
2020-09-01 22:00:00 24.2 4 Sudoeste 10 Sudoeste 0 -- -- 16
2020-09-01 21:00:00 26.5 2 Oeste 14 Sudoeste 0 -- -- 12
2020-09-01 20:00:00 29.3 9 Sudoeste 24 Oeste 0 -- -- 10
2020-09-01 19:00:00 30.8 9 Sur 24 Oeste 0 -- -- 9
2020-09-01 18:00:00 31.7 10 Oeste 31 Oeste 0 -- -- 8
2020-09-01 17:00:00 31.5 12 Oeste 29 Oeste 0 -- -- 7
2020-09-01 16:00:00 29.8 9 Oeste 19 Oeste 0 -- -- 9
2020-09-01 15:00:00 31.6 14 Oeste 26 Oeste 0 -- -- 8
2020-09-01 14:00:00 30.6 14 Sudoeste 25 Sudoeste 0 -- -- 10
2020-09-01 13:00:00 29.9 4 Sudeste 12 Sudeste 0 -- -- 11
2020-09-01 12:00:00 26.9 4 Sudeste 9 Este 0 -- -- 13
2020-09-01 11:00:00 23.1 2 Nordeste 8 Noroeste 0 -- -- 19
2020-09-01 10:00:00 20.4 5 Noroeste 9 Oeste 0 -- -- 24
2020-09-01 09:00:00 18.2 4 Oeste 8 Sudoeste 0 -- -- 26
2020-09-01 08:00:00 16.6 4 Noroeste 9 Sudoeste 0 -- -- 28
2020-09-01 07:00:00 16.6 6 Sudoeste 9 Noroeste 0 -- -- 27
2020-09-01 06:00:00 19.2 5 Oeste 10 Sudeste 0 -- -- 23
2020-09-01 05:00:00 19.9 9 Sudeste 13 Sudeste 0 -- -- 21
2020-09-01 04:00:00 19.4 9 Sudeste 12 Sudeste 0 -- -- 20
2020-09-01 03:00:00 20.7 2 Noroeste 9 Nordeste 0 -- -- 18
2020-09-01 02:00:00 21 6 Nordeste 9 Nordeste 0 -- -- 17
2020-09-01 01:00:00 21.6 8 Nordeste 11 Nordeste 0 -- -- 17
2020-09-01 00:00:00 21.1 8 Nordeste 13 Nordeste 0 -- -- 20
2020-08-31 23:00:00 21.4 8 Norte 16 Nordeste 0 -- -- 19
2020-08-31 22:00:00 22.2 6 Noroeste 13 Norte 0 -- -- 17
2020-08-31 21:00:00 25.5 8 Norte 15 Noroeste 0 -- -- 13
2020-08-31 20:00:00 28.9 10 Noroeste 19 Oeste 0 -- -- 10
2020-08-31 19:00:00 30.5 6 Noroeste 16 Noroeste 0 -- -- 8
2020-08-31 18:00:00 31.5 7 Sudeste 19 Sudeste 0 -- -- 8
2020-08-31 17:00:00 29.6 6 Nordeste 23 Norte 0 -- -- 10
2020-08-31 16:00:00 28.8 8 Norte 24 Nordeste 0 -- -- 10
2020-08-31 15:00:00 29.6 8 Este 24 Este 0 -- -- 10
2020-08-31 14:00:00 29.1 10 Este 26 Sudeste 0 -- -- 11
2020-08-31 13:00:00 28.7 13 Sudeste 26 Sudeste 0 -- -- 12
2020-08-31 12:00:00 26.9 12 Sudeste 28 Sudeste 0 -- -- 14
2020-08-31 11:00:00 23.7 18 Sudeste 33 Este 0 -- -- 18
2020-08-31 10:00:00 21.8 21 Sudeste 31 Sudeste 0 -- -- 21
2020-08-31 09:00:00 18 9 Sudeste 13 Sudeste 0 -- -- 27
2020-08-31 08:00:00 13.6 8 Sudeste 12 Sudeste 0 -- -- 33
2020-08-31 07:00:00 15.5 3 Sudeste 16 Sudeste 0 -- -- 29
2020-08-31 06:00:00 15.9 11 Sudeste 15 Sudeste 0 -- -- 28
2020-08-31 05:00:00 15.7 9 Sudeste 12 Sudeste 0 -- -- 27
2020-08-31 04:00:00 15.8 5 Sudeste 8 Sudeste 0 -- -- 28
2020-08-31 03:00:00 14.7 3 Sur 11 Norte 0 -- -- 29
2020-08-31 02:00:00 18 6 Noroeste 14 Este 0 -- -- 22
2020-08-31 01:00:00 18.6 8 Nordeste 14 Nordeste 0 -- -- 20
2020-08-31 00:00:00 18.9 4 Norte 9 Nordeste 0 -- -- 21
2020-08-30 23:00:00 19.5 7 Nordeste 10 Nordeste 0 -- -- 20
2020-08-30 22:00:00 20.3 6 Nordeste 16 Norte 0 -- -- 19
2020-08-30 21:00:00 22.6 8 Noroeste 20 Norte 0 -- -- 17
2020-08-30 20:00:00 25.1 10 Norte 22 Noroeste 0 -- -- 14
2020-08-30 19:00:00 26.1 14 Noroeste 23 Norte 0 -- -- 14
2020-08-30 18:00:00 26.5 14 Norte 27 Norte 0 -- -- 13
2020-08-30 17:00:00 27 10 Norte 25 Nordeste 0 -- -- 15
2020-08-30 16:00:00 26.7 8 Norte 24 Noroeste 0 -- -- 17
2020-08-30 15:00:00 25.9 7 Norte 19 Nordeste 0 -- -- 17
2020-08-30 14:00:00 27.5 9 Sudeste 26 Sudeste 0 -- -- 18
2020-08-30 13:00:00 26.3 8 Sur 27 Este 0 -- -- 19
2020-08-30 12:00:00 23.5 18 Este 31 Este 0 -- -- 24
2020-08-30 11:00:00 22.1 17 Este 34 Sudeste 0 -- -- 28
2020-08-30 10:00:00 17.5 2 Sudoeste 9 Oeste 0 -- -- 40
2020-08-30 09:00:00 13.7 5 Oeste 8 Oeste 0 -- -- 52
2020-08-30 08:00:00 11.4 7 Oeste 10 Oeste 0 -- -- 60
2020-08-30 07:00:00 11.9 6 Oeste 9 Oeste 0 -- -- 58
2020-08-30 06:00:00 12 6 Oeste 8 Noroeste 0 -- -- 57
2020-08-30 05:00:00 12.6 5 Noroeste 8 Noroeste 0 -- -- 53
2020-08-30 04:00:00 13.1 4 Noroeste 10 Oeste 0 -- -- 53
2020-08-30 03:00:00 13.5 6 Oeste 13 Noroeste 0 -- -- 49
2020-08-30 02:00:00 15.2 11 Noroeste 14 Noroeste 0 -- -- 46
2020-08-30 01:00:00 16.1 9 Noroeste 18 Norte 0 -- -- 39
2020-08-30 00:00:00 19.2 11 Norte 22 Noroeste 0 -- -- 33
2020-08-29 23:00:00 20.2 14 Norte 23 Noroeste 0 -- -- 29
2020-08-29 22:00:00 21.3 16 Norte 28 Noroeste 0 -- -- 27
2020-08-29 21:00:00 22.6 14 Noroeste 33 Noroeste 0 -- -- 21
2020-08-29 20:00:00 24.4 17 Norte 34 Norte 0 -- -- 19
2020-08-29 19:00:00 25.1 19 Norte 39 Noroeste 0 -- -- 18
2020-08-29 18:00:00 25.4 21 Noroeste 42 Noroeste 0 -- -- 19
2020-08-29 17:00:00 25.8 18 Norte 38 Noroeste 0 -- -- 18
2020-08-29 16:00:00 25.1 24 Noroeste 39 Norte 0 -- -- 19
2020-08-29 15:00:00 24.8 22 Norte 43 Norte 0 -- -- 18
2020-08-29 14:00:00 23.2 26 Noroeste 41 Noroeste 0 -- -- 24
2020-08-29 13:00:00 22 22 Noroeste 39 Noroeste 0 -- -- 27
2020-08-29 12:00:00 21.1 21 Noroeste 39 Norte 0 -- -- 28
2020-08-29 11:00:00 19.2 24 Norte 38 Norte 0 -- -- 33
2020-08-29 10:00:00 17.1 18 Noroeste 37 Noroeste 0 -- -- 39
2020-08-29 09:00:00 14.2 16 Noroeste 32 Noroeste 0 -- -- 52
2020-08-29 08:00:00 12.3 18 Noroeste 31 Noroeste 0 -- -- 57
2020-08-29 07:00:00 13.3 20 Noroeste 34 Oeste 0 -- -- 53
2020-08-29 06:00:00 12.9 14 Oeste 24 Oeste 0 -- -- 58
2020-08-29 05:00:00 14 15 Noroeste 29 Noroeste 0 -- -- 58
2020-08-29 04:00:00 14.8 18 Noroeste 29 Noroeste 0 -- -- 61
2020-08-29 03:00:00 15.5 22 Noroeste 35 Noroeste 0 -- -- 61
2020-08-29 02:00:00 16.5 23 Noroeste 40 Noroeste 0 -- -- 56
2020-08-29 01:00:00 17.5 23 Noroeste 38 Noroeste 0 -- -- 51
2020-08-29 00:00:00 18.7 21 Noroeste 39 Noroeste 0 -- -- 47
2020-08-28 23:00:00 20.4 21 Noroeste 42 Noroeste 0 -- -- 41
2020-08-28 22:00:00 23 18 Noroeste 34 Oeste 0 -- -- 28
2020-08-28 21:00:00 25 14 Oeste 35 Oeste 0 -- -- 18
2020-08-28 20:00:00 28.5 20 Oeste 38 Noroeste 0 -- -- 8
2020-08-28 19:00:00 30.2 21 Noroeste 36 Noroeste 0 -- -- 8
2020-08-28 18:00:00 31.4 21 Oeste 39 Oeste 0 -- -- 2
2020-08-28 17:00:00 31.7 20 Oeste 39 Oeste 0 -- -- 9
2020-08-28 16:00:00 30.9 20 Noroeste 42 Noroeste 0 -- -- 21
2020-08-28 15:00:00 29.7 19 Noroeste 39 Noroeste 0 -- -- 28
2020-08-28 14:00:00 29.2 19 Noroeste 39 Noroeste 0 -- -- 27
2020-08-28 13:00:00 27.8 23 Noroeste 40 Oeste 0 -- -- 34
2020-08-28 12:00:00 25.7 22 Noroeste 38 Noroeste 0 -- -- 43
2020-08-28 11:00:00 25 20 Noroeste 30 Noroeste 0 -- -- 46
2020-08-28 10:00:00 22 19 Noroeste 33 Noroeste 0 -- -- 59
2020-08-28 09:00:00 19.5 14 Noroeste 27 Noroeste 0 -- -- 68
2020-08-28 08:00:00 18 11 Noroeste 20 Noroeste 0 -- -- 74
2020-08-28 07:00:00 18.3 10 Noroeste 22 Oeste 0 -- -- 74
2020-08-28 06:00:00 19.1 10 Noroeste 30 Noroeste 0 -- -- 72
2020-08-28 05:00:00 20.2 17 Noroeste 27 Noroeste 0 -- -- 69
2020-08-28 04:00:00 20.9 14 Noroeste 25 Noroeste 0 -- -- 68
2020-08-28 03:00:00 21.9 13 Noroeste 25 Noroeste 0 -- -- 62
2020-08-28 02:00:00 23.4 15 Noroeste 27 Noroeste 0 -- -- 54
2020-08-28 01:00:00 25.2 16 Noroeste 30 Noroeste 0 -- -- 46
2020-08-28 00:00:00 26.7 15 Noroeste 25 Oeste 0 -- -- 38
2020-08-27 23:00:00 28 15 Oeste 27 Noroeste 0 -- -- 35
2020-08-27 22:00:00 29.8 13 Oeste 30 Oeste 0 -- -- 32
2020-08-27 21:00:00 31.7 18 Sudoeste 33 Oeste 0 -- -- 28
2020-08-27 20:00:00 35.3 13 Noroeste 24 Oeste 0 -- -- 20
2020-08-27 19:00:00 36.8 12 Oeste 33 Sudoeste 0 -- -- 15
2020-08-27 18:00:00 37 13 Oeste 33 Oeste 0 -- -- 19
2020-08-27 17:00:00 36.9 12 Noroeste 24 Sudoeste 0 -- -- 15
2020-08-27 16:00:00 36.8 7 Oeste 24 Oeste 0 -- -- 18
2020-08-27 15:00:00 35.4 7 Norte 19 Noroeste 0 -- -- 19
2020-08-27 14:00:00 34.5 6 Noroeste 17 Noroeste 0 -- -- 23
2020-08-27 13:00:00 32.4 9 Noroeste 20 Oeste 0 -- -- 29
2020-08-27 12:00:00 30.1 6 Noroeste 13 Oeste 0 -- -- 34
2020-08-27 11:00:00 27.4 7 Oeste 12 Oeste 0 -- -- 43
2020-08-27 10:00:00 24.5 9 Noroeste 15 Oeste 0 -- -- 53
2020-08-27 09:00:00 22.1 5 Noroeste 8 Noroeste 0 -- -- 61
2020-08-27 08:00:00 20.5 7 Noroeste 10 Noroeste 0 -- -- 65
2020-08-27 07:00:00 21.2 7 Norte 9 Noroeste 0 -- -- 58
2020-08-27 06:00:00 21.7 5 Noroeste 7 Noroeste 0 -- -- 55
2020-08-27 05:00:00 22.1 5 Noroeste 7 Noroeste 0 -- -- 52
2020-08-27 04:00:00 22.6 6 Noroeste 8 Noroeste 0 -- -- 47
2020-08-27 03:00:00 23.7 5 Noroeste 10 Oeste 0 -- -- 41
2020-08-27 02:00:00 24.4 8 Noroeste 12 Noroeste 0 -- -- 38
2020-08-27 01:00:00 25 6 Noroeste 9 Noroeste 0 -- -- 32
2020-08-27 00:00:00 26.8 9 Oeste 21 Oeste 0 -- -- 27
2020-08-26 23:00:00 29 7 Oeste 13 Sudoeste 0 -- -- 19
2020-08-26 22:00:00 28.9 5 Sudoeste 11 Sudoeste 0 -- -- 13
2020-08-26 21:00:00 32.3 6 Sudoeste 20 Oeste 0 -- -- 12
2020-08-26 20:00:00 35.5 13 Sudoeste 20 Oeste 0 -- -- 9
2020-08-26 19:00:00 36.8 12 Oeste 26 Sudoeste 0 -- -- 7
2020-08-26 18:00:00 37.4 9 Sudoeste 23 Sudoeste 0 -- -- 5
2020-08-26 17:00:00 37.2 9 Oeste 28 Sudoeste 0 -- -- 8
2020-08-26 16:00:00 36 18 Oeste 30 Oeste 0 -- -- 11
2020-08-26 15:00:00 35.6 15 Sudoeste 29 Oeste 0 -- -- 14
2020-08-26 14:00:00 34.9 13 Sudoeste 25 Sudoeste 0 -- -- 13
2020-08-26 13:00:00 34.4 11 Sur 19 Sudoeste 0 -- -- 14
2020-08-26 12:00:00 31.7 9 Sudoeste 18 Sudoeste 0 -- -- 21
2020-08-26 11:00:00 30.6 12 Sudeste 21 Sudeste 0 -- -- 24
2020-08-26 10:00:00 27.5 16 Sudeste 24 Sudeste 0 -- -- 27
2020-08-26 09:00:00 24.3 11 Sudeste 16 Sudeste 0 -- -- 35
2020-08-26 08:00:00 21.8 4 Noroeste 5 Noroeste 0 -- -- 40
2020-08-26 07:00:00 21.1 3 Noroeste 6 Noroeste 0 -- -- 42
2020-08-26 06:00:00 21.1 5 Noroeste 8 Noroeste 0 -- -- 42
2020-08-26 05:00:00 21.4 6 Noroeste 9 Norte 0 -- -- 40
2020-08-26 04:00:00 22.4 7 Norte 10 Norte 0 -- -- 36
2020-08-26 03:00:00 22.8 6 Norte 10 Noroeste 0 -- -- 34
2020-08-26 02:00:00 23.6 6 Noroeste 14 Noroeste 0 -- -- 31
2020-08-26 01:00:00 24.9 7 Noroeste 16 Noroeste 0 -- -- 28
2020-08-26 00:00:00 25.9 7 Oeste 23 Noroeste 0 -- -- 25
2020-08-25 23:00:00 27.9 7 Noroeste 10 Oeste 0 -- -- 21
2020-08-25 22:00:00 29.9 6 Oeste 9 Sudoeste 0 -- -- 18
2020-08-25 21:00:00 32.9 6 Sudoeste 19 Sudoeste 0 -- -- 14
2020-08-25 20:00:00 35.5 11 Sudoeste 21 Sudoeste 0 -- -- 12
2020-08-25 19:00:00 37 10 Sudoeste 22 Sudoeste 0 -- -- 11
2020-08-25 18:00:00 37.5 9 Oeste 24 Oeste 0 -- -- 11
2020-08-25 17:00:00 36.6 9 Norte 24 Oeste 0 -- -- 11
2020-08-25 16:00:00 37.1 6 Sudoeste 22 Sur 0 -- -- 12
2020-08-25 15:00:00 37.1 11 Sur 23 Sur 0 -- -- 13
2020-08-25 14:00:00 35.2 6 Sur 19 Sudoeste 0 -- -- 16
2020-08-25 13:00:00 34.3 10 Sudoeste 17 Oeste 0 -- -- 19
2020-08-25 12:00:00 32.7 9 Sudeste 18 Sudeste 0 -- -- 23
2020-08-25 11:00:00 29.6 11 Sudeste 20 Sudeste 0 -- -- 23
2020-08-25 10:00:00 26.3 13 Sudeste 19 Sudeste 0 -- -- 25
2020-08-25 09:00:00 23.8 9 Sudeste 12 Sudeste 0 -- -- 30
2020-08-25 08:00:00 21.5 5 Este 6 Norte 0 -- -- 45
2020-08-25 07:00:00 21.8 5 Nordeste 6 Nordeste 0 -- -- 42
2020-08-25 06:00:00 21.7 5 Noroeste 6 Noroeste 0 -- -- 40
2020-08-25 05:00:00 22.4 4 Noroeste 8 Sudoeste 0 -- -- 38
2020-08-25 04:00:00 23.5 4 Noroeste 10 Sudoeste 0 -- -- 34
2020-08-25 03:00:00 24.6 5 Sudoeste 8 Sudoeste 0 -- -- 29
2020-08-25 02:00:00 24.8 6 Sudoeste 11 Noroeste 0 -- -- 18
2020-08-25 01:00:00 26.9 4 Oeste 8 Sudoeste 0 -- -- 14
2020-08-25 00:00:00 27.6 7 Sur 8 Sur 0 -- -- 14
2020-08-24 23:00:00 27.8 4 Sudeste 8 Sudeste 0 -- -- 13
2020-08-24 22:00:00 28.9 6 Oeste 8 Sudoeste 0 -- -- 12
2020-08-24 21:00:00 31.8 6 Oeste 17 Oeste 0 -- -- 9
2020-08-24 20:00:00 35.1 8 Oeste 17 Oeste 0 -- -- 8
2020-08-24 19:00:00 36.7 8 Este 20 Sudeste 0 -- -- 8
2020-08-24 18:00:00 37.2 6 Sudoeste 19 Sudeste 0 -- -- 8
2020-08-24 17:00:00 37.6 8 Sur 23 Este 0 -- -- 8
2020-08-24 16:00:00 37.1 10 Sudeste 19 Sudeste 0 -- -- 8
2020-08-24 15:00:00 35.9 6 Sur 20 Sudeste 0 -- -- 9
2020-08-24 14:00:00 34.7 9 Sur 23 Sudeste 0 -- -- 11
2020-08-24 13:00:00 33.8 12 Sudeste 25 Sudeste 0 -- -- 12
2020-08-24 12:00:00 30.7 13 Sudeste 19 Sudeste 0 -- -- 17
2020-08-24 11:00:00 27.9 3 Sudeste 7 Sudeste 0 -- -- 23
2020-08-24 10:00:00 22.8 4 Noroeste 9 Noroeste 0 -- -- 39
2020-08-24 09:00:00 20.4 5 Oeste 9 Oeste 0 -- -- 48
2020-08-24 08:00:00 17.3 7 Oeste 9 Oeste 0 -- -- 53
2020-08-24 07:00:00 17 6 Oeste 11 Noroeste 0 -- -- 50
2020-08-24 06:00:00 17.7 8 Noroeste 10 Noroeste 0 -- -- 45
2020-08-24 05:00:00 18 9 Oeste 13 Oeste 0 -- -- 36
2020-08-24 04:00:00 18.9 7 Oeste 10 Noroeste 0 -- -- 31
2020-08-24 03:00:00 19.7 6 Noroeste 10 Noroeste 0 -- -- 26
2020-08-24 02:00:00 21.6 8 Oeste 13 Oeste 0 -- -- 20
2020-08-24 01:00:00 23.3 8 Oeste 12 Oeste 0 -- -- 17
2020-08-24 00:00:00 24.5 6 Oeste 8 Oeste 0 -- -- 16
2020-08-23 23:00:00 25.2 4 Oeste 9 Oeste 0 -- -- 16
2020-08-23 22:00:00 26.7 7 Noroeste 13 Noroeste 0 -- -- 15
2020-08-23 21:00:00 30.5 9 Noroeste 27 Noroeste 0 -- -- 12
2020-08-23 20:00:00 33.1 16 Noroeste 26 Noroeste 0 -- -- 10
2020-08-23 19:00:00 34.7 7 Norte 25 Noroeste 0 -- -- 7
2020-08-23 18:00:00 34.9 6 Norte 21 Este 0 -- -- 6
2020-08-23 17:00:00 34.7 12 Noroeste 24 Noroeste 0 -- -- 5
2020-08-23 16:00:00 34.8 8 Este 21 Norte 0 -- -- 6
2020-08-23 15:00:00 33 8 Noroeste 21 Norte 0 -- -- 8
2020-08-23 14:00:00 31.5 11 Oeste 18 Noroeste 0 -- -- 12
2020-08-23 13:00:00 30 4 Oeste 15 Noroeste 0 -- -- 18
2020-08-23 12:00:00 27.6 4 Norte 14 Noroeste 0 -- -- 23
2020-08-23 11:00:00 23.8 7 Norte 15 Noroeste 0 -- -- 30
2020-08-23 10:00:00 20.8 9 Noroeste 17 Noroeste 0 -- -- 42
2020-08-23 09:00:00 17.6 8 Noroeste 13 Noroeste 0 -- -- 56
2020-08-23 08:00:00 14.3 11 Noroeste 14 Noroeste 0 -- -- 66
2020-08-23 07:00:00 15.2 5 Oeste 8 Oeste 0 -- -- 54
2020-08-23 06:00:00 15.3 7 Oeste 10 Noroeste 0 -- -- 51
2020-08-23 05:00:00 16.5 5 Oeste 11 Oeste 0 -- -- 43
2020-08-23 04:00:00 17 9 Oeste 12 Oeste 0 -- -- 34
2020-08-23 03:00:00 17.9 9 Noroeste 10 Oeste 0 -- -- 30
2020-08-23 02:00:00 19 6 Oeste 15 Noroeste 0 -- -- 24
2020-08-23 01:00:00 20.8 11 Oeste 16 Oeste 0 -- -- 19
2020-08-23 00:00:00 22.1 8 Oeste 14 Noroeste 0 -- -- 18
2020-08-22 23:00:00 23.9 6 Oeste 10 Oeste 0 -- -- 15
2020-08-22 22:00:00 25.5 6 Oeste 11 Noroeste 0 -- -- 13
2020-08-22 21:00:00 29.2 8 Noroeste 18 Oeste 0 -- -- 12
2020-08-22 20:00:00 32.3 11 Noroeste 23 Oeste 0 -- -- 8
2020-08-22 19:00:00 33.2 10 Oeste 22 Noroeste 0 -- -- 8
2020-08-22 18:00:00 33.2 9 Noroeste 23 Oeste 0 -- -- 10
2020-08-22 17:00:00 32.8 11 Noroeste 24 Oeste 0 -- -- 12
2020-08-22 16:00:00 32.5 14 Oeste 27 Noroeste 0 -- -- 14
2020-08-22 15:00:00 31.4 10 Oeste 20 Noroeste 0 -- -- 18
2020-08-22 14:00:00 30.4 5 Noroeste 18 Noroeste 0 -- -- 21
2020-08-22 13:00:00 28.4 7 Noroeste 18 Oeste 0 -- -- 25
2020-08-22 12:00:00 26.5 7 Norte 15 Noroeste 0 -- -- 39
2020-08-22 11:00:00 23.4 7 Noroeste 14 Oeste 0 -- -- 54
2020-08-22 10:00:00 19.6 8 Oeste 12 Oeste 0 -- -- 67
2020-08-22 09:00:00 16.7 6 Noroeste 12 Noroeste 0 -- -- 79
2020-08-22 08:00:00 13.9 6 Noroeste 8 Noroeste 0 -- -- 86
2020-08-22 07:00:00 14.5 6 Noroeste 7 Noroeste 0 -- -- 83
2020-08-22 06:00:00 15 5 Oeste 9 Oeste 0 -- -- 82
2020-08-22 05:00:00 15.8 6 Oeste 10 Noroeste 0 -- -- 75
2020-08-22 04:00:00 16.8 8 Noroeste 11 Noroeste 0 -- -- 71
2020-08-22 03:00:00 17.6 8 Noroeste 12 Noroeste 0 -- -- 66
2020-08-22 02:00:00 18.8 9 Noroeste 17 Noroeste 0 -- -- 59
2020-08-22 01:00:00 19.9 9 Noroeste 14 Noroeste 0 -- -- 55
2020-08-22 00:00:00 21 8 Noroeste 13 Norte 0 -- -- 58